createdAt,value
2018-06-01T00:01:16.068Z,89.26
2018-06-01T00:03:47.702Z,88.62
2018-06-01T00:06:20.653Z,88.46
2018-06-01T00:12:56.608Z,89.94
2018-06-01T00:15:29.007Z,89.99
2018-06-01T00:18:05.170Z,89.90
2018-06-01T00:20:37.260Z,90.19
2018-06-01T00:23:08.976Z,90.55
2018-06-01T00:25:40.116Z,90.77
2018-06-01T00:30:04.329Z,90.83
2018-06-01T00:33:57.737Z,91.29
2018-06-01T00:36:28.899Z,91.40
2018-06-01T00:41:57.519Z,91.17
2018-06-01T00:44:38.069Z,90.98
2018-06-01T00:47:11.755Z,90.82
2018-06-01T00:49:43.274Z,90.80
2018-06-01T00:52:18.547Z,90.96
2018-06-01T00:57:44.645Z,91.26
2018-06-01T01:05:51.457Z,91.24
2018-06-01T01:08:23.067Z,90.99
2018-06-01T01:10:55.578Z,90.95
2018-06-01T01:13:29.577Z,90.70
2018-06-01T01:21:51.957Z,90.71
2018-06-01T01:24:23.438Z,90.54
2018-06-01T01:31:32.606Z,90.80
2018-06-01T01:34:03.736Z,90.39
2018-06-01T01:36:35.514Z,90.35
2018-06-01T01:39:17.387Z,90.44
2018-06-01T01:41:58.807Z,90.49
2018-06-01T01:44:30.713Z,90.45
2018-06-01T01:47:11.178Z,90.39
2018-06-01T01:49:42.276Z,90.76
2018-06-01T01:52:13.679Z,90.98
2018-06-01T01:54:51.024Z,91.07
2018-06-01T01:57:22.206Z,90.96
2018-06-01T01:59:54.319Z,90.65
2018-06-01T02:02:29.144Z,90.76
2018-06-01T02:05:00.494Z,90.85
2018-06-01T02:07:31.809Z,90.82
2018-06-01T02:10:10.458Z,91.03
2018-06-01T02:12:44.227Z,91.32
2018-06-01T02:15:28.338Z,91.59
2018-06-01T02:18:00.454Z,91.75
2018-06-01T02:20:31.904Z,91.92
2018-06-01T02:23:05.302Z,92.15
2018-06-01T02:28:40.420Z,92.27
2018-06-01T02:31:12.719Z,92.32
2018-06-01T02:33:44.940Z,92.33
2018-06-01T02:36:16.491Z,92.50
2018-06-01T02:38:53.425Z,92.63
2018-06-01T02:41:24.667Z,92.62
2018-06-01T02:44:00.357Z,92.64
2018-06-01T02:46:32.261Z,92.62
2018-06-01T02:49:05.148Z,92.70
2018-06-01T02:51:37.208Z,92.78
2018-06-01T02:54:11.111Z,92.83
2018-06-01T02:56:42.318Z,92.90
2018-06-01T02:59:13.508Z,93.00
2018-06-01T03:02:07.509Z,92.99
2018-06-01T03:04:38.615Z,92.97
2018-06-01T03:07:14.589Z,92.88
2018-06-01T03:09:46.477Z,92.89
2018-06-01T03:12:17.732Z,92.85
2018-06-01T03:15:08.311Z,92.82
2018-06-01T03:17:44.799Z,92.83
2018-06-01T03:20:15.828Z,92.83
2018-06-01T03:22:52.777Z,92.85
2018-06-01T03:25:24.215Z,92.90
2018-06-01T03:27:55.381Z,92.95
2018-06-01T03:30:30.510Z,92.87
2018-06-01T03:33:03.369Z,92.81
2018-06-01T03:35:35.338Z,92.76
2018-06-01T03:38:28.161Z,92.74
2018-06-01T03:40:59.258Z,92.72
2018-06-01T03:43:30.471Z,92.69
2018-06-01T03:46:01.960Z,92.72
2018-06-01T03:48:34.758Z,92.77
2018-06-01T03:51:06.284Z,92.69
2018-06-01T03:53:47.079Z,92.59
2018-06-01T03:56:19.086Z,92.60
2018-06-01T03:58:50.264Z,92.52
2018-06-01T04:01:27.258Z,92.54
2018-06-01T04:03:58.398Z,92.48
2018-06-01T04:06:42.303Z,92.31
2018-06-01T04:09:13.606Z,92.34
2018-06-01T04:11:45.580Z,92.30
2018-06-01T04:14:18.437Z,92.36
2018-06-01T04:16:50.151Z,92.35
2018-06-01T04:19:28.078Z,92.39
2018-06-01T04:21:59.123Z,92.33
2018-06-01T04:24:31.292Z,92.46
2018-06-01T04:27:25.692Z,92.37
2018-06-01T04:29:56.971Z,92.42
2018-06-01T04:32:28.632Z,92.46
2018-06-01T04:35:00.063Z,92.43
2018-06-01T04:37:37.584Z,92.35
2018-06-01T04:40:09.700Z,92.10
2018-06-01T04:42:57.675Z,91.90
2018-06-01T04:45:33.496Z,91.85
2018-06-01T04:48:17.869Z,91.95
2018-06-01T04:50:57.001Z,92.00
2018-06-01T04:57:32.562Z,91.91
2018-06-01T05:00:08.049Z,91.83
2018-06-01T05:02:39.602Z,91.61
2018-06-01T05:05:15.387Z,91.46
2018-06-01T05:08:10.707Z,91.32
2018-06-01T05:10:53.973Z,91.19
2018-06-01T05:13:26.923Z,91.01
2018-06-01T05:16:04.770Z,90.68
2018-06-01T05:24:18.310Z,89.97
2018-06-01T05:29:45.571Z,87.48
2018-06-01T05:32:20.863Z,87.33
2018-06-01T05:34:55.494Z,87.12
2018-06-01T05:37:29.221Z,87.66
2018-06-01T05:40:00.549Z,86.76
2018-06-01T05:42:33.536Z,87.03
2018-06-01T05:45:10.955Z,86.61
2018-06-01T05:47:42.002Z,86.04
2018-06-01T05:50:18.491Z,86.96
2018-06-01T05:52:51.080Z,86.73
2018-06-01T05:55:22.310Z,86.02
2018-06-01T05:57:58.508Z,84.78
2018-06-01T06:00:29.728Z,83.79
2018-06-01T06:03:02.076Z,84.20
2018-06-01T06:05:34.967Z,83.21
2018-06-01T06:08:06.527Z,83.21
2018-06-01T06:10:38.196Z,81.55
2018-06-01T06:13:09.546Z,82.42
2018-06-01T06:15:41.145Z,79.90
2018-06-01T06:18:20.932Z,81.06
2018-06-01T06:20:52.685Z,80.69
2018-06-01T06:23:30.621Z,80.88
2018-06-01T06:26:02.014Z,79.97
2018-06-01T06:28:35.637Z,79.91
2018-06-01T06:31:07.920Z,79.72
2018-06-01T06:33:39.453Z,79.30
2018-06-01T06:36:10.736Z,78.61
2018-06-01T06:38:48.840Z,78.20
2018-06-01T06:41:20.514Z,76.79
2018-06-01T06:43:51.641Z,78.38
2018-06-01T06:46:23.081Z,78.49
2018-06-01T06:48:54.112Z,75.92
2018-06-01T06:51:25.188Z,77.07
2018-06-01T06:53:56.195Z,75.29
2018-06-01T06:56:27.280Z,76.21
2018-06-01T06:58:59.398Z,77.33
2018-06-01T07:01:35.141Z,75.45
2018-06-01T07:04:15.418Z,73.25
2018-06-01T07:06:46.597Z,73.15
2018-06-01T07:09:19.048Z,72.51
2018-06-01T07:11:50.355Z,71.57
2018-06-01T07:14:21.435Z,73.54
2018-06-01T07:16:55.958Z,71.99
2018-06-01T07:19:29.414Z,71.20
2018-06-01T07:22:00.802Z,70.89
2018-06-01T07:24:33.320Z,72.48
2018-06-01T07:27:04.453Z,70.29
2018-06-01T07:29:35.540Z,70.46
2018-06-01T07:32:08.131Z,70.94
2018-06-01T07:34:51.225Z,68.20
2018-06-01T07:37:30.529Z,68.62
2018-06-01T07:40:11.260Z,67.25
2018-06-01T07:42:42.941Z,67.57
2018-06-01T07:45:14.374Z,66.92
2018-06-01T07:47:53.402Z,66.05
2018-06-01T07:50:25.834Z,65.81
2018-06-01T07:52:57.155Z,63.26
2018-06-01T07:58:30.909Z,62.60
2018-06-01T08:01:02.104Z,64.26
2018-06-01T08:03:34.548Z,63.28
2018-06-01T08:06:05.916Z,62.78
2018-06-01T08:08:38.140Z,61.41
2018-06-01T08:11:09.637Z,61.00
2018-06-01T08:13:40.878Z,62.48
2018-06-01T08:16:18.068Z,61.02
2018-06-01T08:18:49.317Z,63.00
2018-06-01T08:21:20.937Z,61.77
2018-06-01T08:23:52.888Z,61.68
2018-06-01T08:26:32.532Z,61.11
2018-06-01T08:29:03.622Z,59.72
2018-06-01T08:34:22.345Z,57.00
2018-06-01T08:39:38.426Z,53.16
2018-06-01T08:42:11.337Z,51.92
2018-06-01T08:44:44.271Z,52.59
2018-06-01T08:47:16.123Z,52.13
2018-06-01T08:49:49.988Z,53.71
2018-06-01T08:52:22.716Z,51.57
2018-06-01T08:54:55.221Z,50.27
2018-06-01T08:57:37.353Z,51.77
2018-06-01T09:00:14.581Z,52.21
2018-06-01T09:02:50.668Z,52.65
2018-06-01T09:05:22.357Z,49.74
2018-06-01T09:07:54.884Z,48.80
2018-06-01T09:10:27.431Z,49.84
2018-06-01T09:12:59.556Z,49.56
2018-06-01T09:15:31.050Z,47.37
2018-06-01T09:18:02.184Z,45.78
2018-06-01T09:20:35.251Z,43.03
2018-06-01T09:23:06.803Z,45.58
2018-06-01T09:25:38.514Z,46.38
2018-06-01T09:28:21.385Z,46.53
2018-06-01T09:30:56.592Z,44.68
2018-06-01T09:33:28.153Z,43.71
2018-06-01T09:36:00.518Z,40.30
2018-06-01T09:38:32.508Z,40.53
2018-06-01T09:41:03.699Z,39.98
2018-06-01T09:43:35.129Z,39.02
2018-06-01T09:46:06.563Z,36.99
2018-06-01T09:48:37.842Z,41.22
2018-06-01T09:51:11.707Z,43.22
2018-06-01T09:53:42.984Z,42.09
2018-06-01T09:56:14.762Z,45.74
2018-06-01T09:58:46.277Z,42.66
2018-06-01T10:01:22.219Z,45.24
2018-06-01T10:03:53.980Z,45.33
2018-06-01T10:06:25.102Z,45.90
2018-06-01T10:09:09.645Z,48.07
2018-06-01T10:11:41.253Z,46.08
2018-06-01T10:14:17.784Z,46.30
2018-06-01T10:16:49.869Z,46.02
2018-06-01T10:19:22.962Z,43.63
2018-06-01T10:21:58.817Z,40.45
2018-06-01T10:24:37.067Z,41.37
2018-06-01T10:27:12.946Z,41.95
2018-06-01T10:29:44.082Z,43.39
2018-06-01T10:32:18.377Z,45.26
2018-06-01T10:34:49.728Z,46.30
2018-06-01T10:37:21.074Z,48.41
2018-06-01T10:39:52.223Z,50.35
2018-06-01T10:42:44.834Z,50.29
2018-06-01T10:45:16.332Z,49.32
2018-06-01T10:47:48.011Z,50.42
2018-06-01T10:50:21.821Z,49.13
2018-06-01T10:52:53.141Z,52.34
2018-06-01T10:55:25.979Z,47.28
2018-06-01T10:57:59.069Z,44.92
2018-06-01T11:00:30.680Z,43.09
2018-06-01T11:03:02.431Z,44.71
2018-06-01T11:05:33.840Z,43.78
2018-06-01T11:08:07.718Z,45.12
2018-06-01T11:10:39.934Z,41.87
2018-06-01T11:13:34.613Z,40.29
2018-06-01T11:16:08.331Z,43.95
2018-06-01T11:18:54.196Z,44.70
2018-06-01T11:21:25.760Z,44.60
2018-06-01T11:23:57.726Z,45.37
2018-06-01T11:29:25.202Z,47.62
2018-06-01T11:31:58.379Z,48.03
2018-06-01T11:34:29.768Z,48.60
2018-06-01T11:37:00.938Z,49.64
2018-06-01T11:39:32.731Z,50.79
2018-06-01T11:42:04.019Z,50.88
2018-06-01T11:44:35.178Z,53.21
2018-06-01T11:47:06.649Z,53.59
2018-06-01T11:49:42.808Z,51.01
2018-06-01T11:52:14.912Z,52.45
2018-06-01T11:54:46.327Z,48.67
2018-06-01T11:57:24.528Z,43.23
2018-06-01T11:59:56.432Z,37.88
2018-06-01T12:02:28.715Z,43.17
2018-06-01T12:07:36.236Z,47.19
2018-06-01T12:10:07.850Z,44.48
2018-06-01T12:12:59.332Z,38.62
2018-06-01T12:15:32.088Z,35.39
2018-06-01T12:18:03.706Z,29.25
2018-06-01T12:20:53.220Z,29.78
2018-06-01T12:23:25.010Z,28.02
2018-06-01T12:26:18.949Z,27.92
2018-06-01T12:29:14.257Z,29.57
2018-06-01T12:31:46.949Z,30.32
2018-06-01T12:34:20.529Z,30.91
2018-06-01T12:36:52.094Z,29.39
2018-06-01T12:39:23.188Z,29.63
2018-06-01T12:41:54.937Z,30.57
2018-06-01T12:44:41.165Z,34.00
2018-06-01T12:47:12.568Z,30.46
2018-06-01T12:49:44.180Z,29.75
2018-06-01T12:52:22.300Z,29.07
2018-06-01T12:54:54.165Z,29.39
2018-06-01T12:57:26.328Z,30.22
2018-06-01T12:59:57.681Z,32.87
2018-06-01T13:02:29.500Z,32.36
2018-06-01T13:05:00.993Z,29.38
2018-06-01T13:07:32.376Z,28.57
2018-06-01T13:10:03.713Z,25.88
2018-06-01T13:12:44.170Z,23.87
2018-06-01T13:15:16.772Z,21.92
2018-06-01T13:17:48.117Z,22.52
2018-06-01T13:20:24.571Z,21.87
2018-06-01T13:22:56.379Z,21.95
2018-06-01T13:25:33.247Z,21.60
2018-06-01T13:28:05.576Z,21.44
2018-06-01T13:30:38.976Z,22.81
2018-06-01T13:33:10.528Z,22.45
2018-06-01T13:35:41.641Z,23.05
2018-06-01T13:38:14.324Z,23.29
2018-06-01T13:40:46.086Z,22.60
2018-06-01T13:43:17.686Z,21.85
2018-06-01T13:45:49.023Z,21.81
2018-06-01T13:48:26.820Z,21.29
2018-06-01T13:50:57.951Z,20.15
2018-06-01T13:53:30.169Z,20.97
2018-06-01T13:56:07.543Z,19.94
2018-06-01T13:58:39.324Z,20.36
2018-06-01T14:01:11.184Z,21.13
2018-06-01T14:03:45.484Z,22.16
2018-06-01T14:06:22.044Z,22.14
2018-06-01T14:08:53.864Z,22.92
2018-06-01T14:11:28.025Z,24.57
2018-06-01T14:13:59.835Z,28.27
2018-06-01T14:16:32.359Z,31.29
2018-06-01T14:19:15.694Z,36.87
2018-06-01T14:21:46.887Z,37.41
2018-06-01T14:24:18.762Z,38.09
2018-06-01T14:26:51.536Z,36.92
2018-06-01T14:29:23.378Z,32.05
2018-06-01T14:31:54.685Z,29.69
2018-06-01T14:37:09.345Z,26.64
2018-06-01T14:39:42.364Z,26.80
2018-06-01T14:42:18.925Z,31.09
2018-06-01T14:44:50.417Z,34.84
2018-06-01T14:47:36.120Z,30.12
2018-06-01T14:50:10.597Z,28.78
2018-06-01T14:52:44.410Z,27.96
2018-06-01T14:55:16.725Z,28.53
2018-06-01T14:57:48.622Z,33.13
2018-06-01T15:00:20.119Z,32.15
2018-06-01T15:02:51.527Z,29.41
2018-06-01T15:05:23.546Z,27.69
2018-06-01T15:07:55.192Z,27.16
2018-06-01T15:10:29.217Z,25.43
2018-06-01T15:13:00.776Z,26.12
2018-06-01T15:15:32.616Z,28.10
2018-06-01T15:18:05.596Z,27.87
2018-06-01T15:20:37.503Z,27.96
2018-06-01T15:23:08.819Z,27.97
2018-06-01T15:25:40.129Z,26.82
2018-06-01T15:28:11.959Z,27.94
2018-06-01T15:30:43.000Z,26.77
2018-06-01T15:33:14.510Z,27.11
2018-06-01T15:35:46.329Z,28.47
2018-06-01T15:38:17.603Z,28.55
2018-06-01T15:40:51.508Z,33.65
2018-06-01T15:43:22.913Z,36.66
2018-06-01T15:45:54.124Z,38.68
2018-06-01T15:48:25.717Z,38.97
2018-06-01T15:50:59.199Z,38.44
2018-06-01T15:53:30.353Z,38.25
2018-06-01T15:56:01.500Z,37.38
2018-06-01T15:58:33.092Z,40.51
2018-06-01T16:01:07.348Z,41.91
2018-06-01T16:03:39.442Z,43.68
2018-06-01T16:06:17.414Z,44.48
2018-06-01T16:08:52.315Z,44.23
2018-06-01T16:11:25.063Z,46.38
2018-06-01T16:14:05.744Z,48.33
2018-06-01T16:16:37.170Z,46.16
2018-06-01T16:19:18.536Z,46.94
2018-06-01T16:21:51.440Z,48.38
2018-06-01T16:24:42.901Z,46.48
2018-06-01T16:27:20.067Z,46.09
2018-06-01T16:29:52.114Z,46.86
2018-06-01T16:32:26.661Z,46.64
2018-06-01T16:35:02.778Z,47.66
2018-06-01T16:37:37.332Z,49.27
2018-06-01T16:40:12.461Z,50.50
2018-06-01T16:42:50.498Z,51.33
2018-06-01T16:45:22.767Z,52.14
2018-06-01T16:48:12.989Z,54.12
2018-06-01T16:50:45.607Z,56.06
2018-06-01T16:53:19.249Z,57.66
2018-06-01T16:55:53.055Z,58.50
2018-06-01T17:01:14.690Z,58.55
2018-06-01T17:03:46.238Z,58.33
2018-06-01T17:06:35.168Z,57.48
2018-06-01T17:09:07.259Z,57.95
2018-06-01T17:11:44.620Z,58.29
2018-06-01T17:14:17.913Z,58.69
2018-06-01T17:16:54.035Z,59.21
2018-06-01T17:19:25.748Z,59.22
2018-06-01T17:21:57.312Z,59.25
2018-06-01T17:27:28.703Z,58.90
2018-06-01T17:30:01.022Z,59.24
2018-06-01T17:32:37.648Z,58.26
2018-06-01T17:35:20.668Z,57.80
2018-06-01T17:37:52.568Z,57.61
2018-06-01T17:40:28.028Z,59.19
2018-06-01T17:43:01.424Z,57.15
2018-06-01T17:45:35.642Z,58.14
2018-06-01T17:48:13.642Z,58.91
2018-06-01T17:50:47.689Z,59.06
2018-06-01T17:53:20.226Z,59.92
2018-06-01T17:55:52.803Z,58.54
2018-06-01T17:58:27.632Z,59.45
2018-06-01T18:00:59.599Z,58.31
2018-06-01T18:03:39.542Z,59.01
2018-06-01T18:06:11.110Z,59.00
2018-06-01T18:08:42.284Z,59.23
2018-06-01T18:11:13.823Z,59.64
2018-06-01T18:13:46.073Z,60.07
2018-06-01T18:16:18.382Z,59.96
2018-06-01T18:18:49.761Z,60.39
2018-06-01T18:21:21.862Z,60.74
2018-06-01T18:23:53.871Z,60.01
2018-06-01T18:26:25.386Z,60.72
2018-06-01T18:28:56.678Z,60.62
2018-06-01T18:31:30.795Z,60.60
2018-06-01T18:34:02.625Z,60.70
2018-06-01T18:36:34.015Z,59.44
2018-06-01T18:39:07.406Z,59.17
2018-06-01T18:41:39.992Z,58.57
2018-06-01T18:46:59.427Z,60.33
2018-06-01T18:49:32.504Z,61.03
2018-06-01T18:52:04.571Z,60.44
2018-06-01T18:54:44.950Z,60.99
2018-06-01T18:57:16.569Z,60.93
2018-06-01T18:59:47.847Z,60.38
2018-06-01T19:02:19.198Z,60.95
2018-06-01T19:04:52.817Z,62.19
2018-06-01T19:07:24.146Z,63.09
2018-06-01T19:09:55.465Z,63.42
2018-06-01T19:12:29.689Z,62.70
2018-06-01T19:15:00.944Z,64.45
2018-06-01T19:17:32.746Z,64.94
2018-06-01T19:20:04.456Z,64.88
2018-06-01T19:22:35.989Z,64.66
2018-06-01T19:25:07.720Z,65.75
2018-06-01T19:27:39.492Z,64.77
2018-06-01T19:30:11.178Z,64.96
2018-06-01T19:32:42.681Z,66.87
2018-06-01T19:35:14.367Z,65.94
2018-06-01T19:37:46.408Z,65.87
2018-06-01T19:40:17.566Z,65.30
2018-06-01T19:42:50.038Z,64.70
2018-06-01T19:45:21.172Z,64.76
2018-06-01T19:47:52.274Z,63.82
2018-06-01T19:53:25.216Z,62.58
2018-06-01T19:58:33.240Z,63.40
2018-06-01T20:01:10.942Z,64.27
2018-06-01T20:03:42.901Z,65.45
2018-06-01T20:06:14.198Z,65.70
2018-06-01T20:08:50.772Z,65.69
2018-06-01T20:11:22.044Z,66.05
2018-06-01T20:13:53.893Z,67.97
2018-06-01T20:16:31.271Z,68.59
2018-06-01T20:19:02.792Z,69.01
2018-06-01T20:21:34.982Z,69.58
2018-06-01T20:24:07.455Z,70.11
2018-06-01T20:26:39.011Z,70.81
2018-06-01T20:29:12.037Z,71.10
2018-06-01T20:31:43.855Z,71.42
2018-06-01T20:34:15.786Z,71.87
2018-06-01T20:36:53.120Z,72.41
2018-06-01T20:39:25.209Z,72.59
2018-06-01T20:41:57.783Z,73.86
2018-06-01T20:44:30.275Z,73.43
2018-06-01T20:47:03.459Z,73.09
2018-06-01T20:49:36.416Z,72.86
2018-06-01T20:52:10.885Z,73.31
2018-06-01T20:54:43.252Z,72.29
2018-06-01T20:57:14.997Z,72.21
2018-06-01T20:59:46.904Z,72.58
2018-06-01T21:02:18.530Z,72.26
2018-06-01T21:04:50.218Z,73.03
2018-06-01T21:07:30.600Z,73.51
2018-06-01T21:10:01.930Z,73.48
2018-06-01T21:12:33.288Z,73.76
2018-06-01T21:15:04.467Z,73.86
2018-06-01T21:17:45.359Z,74.55
2018-06-01T21:20:17.185Z,75.11
2018-06-01T21:22:48.602Z,75.58
2018-06-01T21:25:20.029Z,75.80
2018-06-01T21:27:52.332Z,75.72
2018-06-01T21:30:23.927Z,75.97
2018-06-01T21:32:56.243Z,76.80
2018-06-01T21:35:28.692Z,76.91
2018-06-01T21:38:00.360Z,77.05
2018-06-01T21:40:31.775Z,77.71
2018-06-01T21:43:05.961Z,77.69
2018-06-01T21:45:38.188Z,77.83
2018-06-01T21:48:09.300Z,77.76
2018-06-01T21:50:42.300Z,78.39
2018-06-01T21:53:15.261Z,78.19
2018-06-01T21:55:48.706Z,77.98
2018-06-01T21:58:22.503Z,78.15
2018-06-01T22:00:53.853Z,78.37
2018-06-01T22:03:25.128Z,78.56
2018-06-01T22:05:56.336Z,78.61
2018-06-01T22:08:30.329Z,78.84
2018-06-01T22:11:01.465Z,78.69
2018-06-01T22:13:32.592Z,78.90
2018-06-01T22:16:03.763Z,79.02
2018-06-01T22:18:35.044Z,79.23
2018-06-01T22:21:06.755Z,79.31
2018-06-01T22:26:44.486Z,79.37
2018-06-01T22:29:15.637Z,79.38
2018-06-01T22:31:47.003Z,79.47
2018-06-01T22:34:18.202Z,79.76
2018-06-01T22:37:05.942Z,79.63
2018-06-01T22:39:37.411Z,79.56
2018-06-01T22:42:14.457Z,79.89
2018-06-01T22:44:46.215Z,79.95
2018-06-01T22:47:30.160Z,80.25
2018-06-01T22:50:01.562Z,80.67
2018-06-01T22:52:33.380Z,80.90
2018-06-01T22:55:04.628Z,80.65
2018-06-01T22:57:37.085Z,80.82
2018-06-01T23:00:09.273Z,80.87
2018-06-01T23:02:42.756Z,81.30
2018-06-01T23:05:15.044Z,81.08
2018-06-01T23:07:46.503Z,81.43
2018-06-01T23:10:18.457Z,81.71
2018-06-01T23:12:53.725Z,81.74
2018-06-01T23:15:25.769Z,81.77
2018-06-01T23:18:07.526Z,81.97
2018-06-01T23:20:39.582Z,82.25
2018-06-01T23:23:12.303Z,82.12
2018-06-01T23:25:44.468Z,82.18
2018-06-01T23:28:16.453Z,82.38
2018-06-01T23:30:47.773Z,82.31
2018-06-01T23:33:19.771Z,82.41
2018-06-01T23:35:51.154Z,82.40
2018-06-01T23:38:25.360Z,82.27
2018-06-01T23:40:58.494Z,82.00
2018-06-01T23:43:30.499Z,81.70
2018-06-01T23:46:02.675Z,81.22
2018-06-01T23:48:34.614Z,80.96
2018-06-01T23:51:07.119Z,80.47
2018-06-01T23:53:41.485Z,80.35
2018-06-01T23:56:15.904Z,80.47
2018-06-01T23:58:47.795Z,80.65
